sensor_id;sensor_type;location;lat;lon;timestamp;P1;durP1;ratioP1;P2;durP2;ratioP2
69046;SDS011;57261;47.504;19.084;2022-09-03T00:01:32;9.50;;;4.10;;
69046;SDS011;57261;47.504;19.084;2022-09-03T00:04:46;9.18;;;4.43;;
69046;SDS011;57261;47.504;19.084;2022-09-03T00:14:23;9.13;;;3.93;;
69046;SDS011;57261;47.504;19.084;2022-09-03T00:17:35;9.40;;;4.60;;
69046;SDS011;57261;47.504;19.084;2022-09-03T00:20:44;8.55;;;4.30;;
69046;SDS011;57261;47.504;19.084;2022-09-03T00:23:49;9.98;;;4.55;;
69046;SDS011;57261;47.504;19.084;2022-09-03T00:26:52;8.95;;;4.45;;
69046;SDS011;57261;47.504;19.084;2022-09-03T00:30:13;8.37;;;4.40;;
69046;SDS011;57261;47.504;19.084;2022-09-03T00:33:22;9.23;;;4.37;;
69046;SDS011;57261;47.504;19.084;2022-09-03T00:39:32;9.95;;;4.70;;
69046;SDS011;57261;47.504;19.084;2022-09-03T00:52:24;9.27;;;4.73;;
69046;SDS011;57261;47.504;19.084;2022-09-03T00:55:51;9.27;;;4.80;;
69046;SDS011;57261;47.504;19.084;2022-09-03T00:59:01;9.83;;;4.77;;
69046;SDS011;57261;47.504;19.084;2022-09-03T01:02:24;8.77;;;4.20;;
69046;SDS011;57261;47.504;19.084;2022-09-03T01:12:50;9.95;;;4.75;;
69046;SDS011;57261;47.504;19.084;2022-09-03T01:16:09;8.00;;;4.60;;
69046;SDS011;57261;47.504;19.084;2022-09-03T01:25:53;10.25;;;4.60;;
69046;SDS011;57261;47.504;19.084;2022-09-03T01:32:41;10.83;;;4.90;;
69046;SDS011;57261;47.504;19.084;2022-09-03T01:35:53;8.95;;;5.25;;
69046;SDS011;57261;47.504;19.084;2022-09-03T01:39:06;11.35;;;4.50;;
69046;SDS011;57261;47.504;19.084;2022-09-03T01:42:17;9.73;;;4.88;;
69046;SDS011;57261;47.504;19.084;2022-09-03T01:49:01;9.63;;;4.63;;
69046;SDS011;57261;47.504;19.084;2022-09-03T01:52:18;9.02;;;4.47;;
69046;SDS011;57261;47.504;19.084;2022-09-03T01:58:40;8.60;;;4.28;;
69046;SDS011;57261;47.504;19.084;2022-09-03T02:02:04;8.15;;;4.55;;
69046;SDS011;57261;47.504;19.084;2022-09-03T02:05:11;9.67;;;4.77;;
69046;SDS011;57261;47.504;19.084;2022-09-03T02:08:15;8.45;;;4.20;;
69046;SDS011;57261;47.504;19.084;2022-09-03T02:11:15;9.37;;;4.90;;
69046;SDS011;57261;47.504;19.084;2022-09-03T02:14:16;7.75;;;3.95;;
69046;SDS011;57261;47.504;19.084;2022-09-03T02:17:17;9.60;;;4.65;;
69046;SDS011;57261;47.504;19.084;2022-09-03T02:20:18;8.97;;;4.80;;
69046;SDS011;57261;47.504;19.084;2022-09-03T02:23:21;10.48;;;4.82;;
69046;SDS011;57261;47.504;19.084;2022-09-03T02:26:23;10.43;;;4.87;;
69046;SDS011;57261;47.504;19.084;2022-09-03T02:29:24;8.77;;;4.83;;
69046;SDS011;57261;47.504;19.084;2022-09-03T02:32:24;9.50;;;4.75;;
69046;SDS011;57261;47.504;19.084;2022-09-03T02:35:25;9.83;;;5.13;;
69046;SDS011;57261;47.504;19.084;2022-09-03T02:38:26;9.27;;;4.88;;
69046;SDS011;57261;47.504;19.084;2022-09-03T02:41:27;8.18;;;4.40;;
69046;SDS011;57261;47.504;19.084;2022-09-03T02:44:28;9.70;;;4.57;;
69046;SDS011;57261;47.504;19.084;2022-09-03T02:47:34;10.00;;;4.77;;
69046;SDS011;57261;47.504;19.084;2022-09-03T02:50:41;8.88;;;4.50;;
69046;SDS011;57261;47.504;19.084;2022-09-03T02:53:42;9.55;;;4.97;;
69046;SDS011;57261;47.504;19.084;2022-09-03T02:56:49;9.17;;;4.47;;
69046;SDS011;57261;47.504;19.084;2022-09-03T02:59:49;10.10;;;5.68;;
69046;SDS011;57261;47.504;19.084;2022-09-03T03:02:50;10.97;;;5.87;;
69046;SDS011;57261;47.504;19.084;2022-09-03T03:05:55;9.68;;;5.35;;
69046;SDS011;57261;47.504;19.084;2022-09-03T03:08:57;9.60;;;5.20;;
69046;SDS011;57261;47.504;19.084;2022-09-03T03:12:00;9.75;;;5.10;;
69046;SDS011;57261;47.504;19.084;2022-09-03T03:15:01;8.87;;;4.20;;
69046;SDS011;57261;47.504;19.084;2022-09-03T03:18:01;9.30;;;5.10;;
69046;SDS011;57261;47.504;19.084;2022-09-03T03:21:09;9.27;;;4.60;;
69046;SDS011;57261;47.504;19.084;2022-09-03T03:24:12;8.50;;;4.30;;
69046;SDS011;57261;47.504;19.084;2022-09-03T03:27:13;10.23;;;4.90;;
69046;SDS011;57261;47.504;19.084;2022-09-03T03:30:13;9.23;;;5.30;;
69046;SDS011;57261;47.504;19.084;2022-09-03T03:33:14;11.57;;;5.33;;
69046;SDS011;57261;47.504;19.084;2022-09-03T03:36:15;10.17;;;5.43;;
69046;SDS011;57261;47.504;19.084;2022-09-03T03:39:15;10.75;;;5.90;;
69046;SDS011;57261;47.504;19.084;2022-09-03T03:42:16;10.00;;;5.60;;
69046;SDS011;57261;47.504;19.084;2022-09-03T03:45:16;9.53;;;5.37;;
69046;SDS011;57261;47.504;19.084;2022-09-03T03:48:16;9.23;;;5.50;;
69046;SDS011;57261;47.504;19.084;2022-09-03T03:51:17;9.60;;;5.17;;
69046;SDS011;57261;47.504;19.084;2022-09-03T03:54:18;14.48;;;5.28;;
69046;SDS011;57261;47.504;19.084;2022-09-03T03:57:18;10.00;;;5.40;;
69046;SDS011;57261;47.504;19.084;2022-09-03T04:00:20;9.60;;;5.20;;
69046;SDS011;57261;47.504;19.084;2022-09-03T04:03:20;9.43;;;5.20;;
69046;SDS011;57261;47.504;19.084;2022-09-03T04:06:21;10.97;;;4.97;;
69046;SDS011;57261;47.504;19.084;2022-09-03T04:09:21;10.00;;;5.00;;
69046;SDS011;57261;47.504;19.084;2022-09-03T04:12:21;10.70;;;4.93;;
69046;SDS011;57261;47.504;19.084;2022-09-03T04:15:22;8.83;;;4.87;;
69046;SDS011;57261;47.504;19.084;2022-09-03T04:18:22;10.70;;;5.63;;
69046;SDS011;57261;47.504;19.084;2022-09-03T04:21:24;11.63;;;5.40;;
69046;SDS011;57261;47.504;19.084;2022-09-03T04:24:25;9.75;;;5.40;;
69046;SDS011;57261;47.504;19.084;2022-09-03T04:27:26;14.48;;;8.82;;
69046;SDS011;57261;47.504;19.084;2022-09-03T04:30:26;11.97;;;7.07;;
69046;SDS011;57261;47.504;19.084;2022-09-03T04:33:27;13.17;;;6.70;;
69046;SDS011;57261;47.504;19.084;2022-09-03T04:36:28;11.43;;;6.87;;
69046;SDS011;57261;47.504;19.084;2022-09-03T04:39:29;11.52;;;6.40;;
69046;SDS011;57261;47.504;19.084;2022-09-03T04:42:30;12.43;;;6.07;;
69046;SDS011;57261;47.504;19.084;2022-09-03T04:45:30;11.90;;;6.60;;
69046;SDS011;57261;47.504;19.084;2022-09-03T04:48:31;11.75;;;6.40;;
69046;SDS011;57261;47.504;19.084;2022-09-03T04:51:33;13.27;;;7.47;;
69046;SDS011;57261;47.504;19.084;2022-09-03T04:54:36;12.98;;;7.95;;
69046;SDS011;57261;47.504;19.084;2022-09-03T04:57:37;15.67;;;7.10;;
69046;SDS011;57261;47.504;19.084;2022-09-03T05:00:37;12.37;;;7.00;;
69046;SDS011;57261;47.504;19.084;2022-09-03T05:03:38;10.90;;;6.73;;
69046;SDS011;57261;47.504;19.084;2022-09-03T05:06:38;13.13;;;7.25;;
69046;SDS011;57261;47.504;19.084;2022-09-03T05:09:38;14.63;;;8.27;;
69046;SDS011;57261;47.504;19.084;2022-09-03T05:12:39;13.33;;;7.33;;
69046;SDS011;57261;47.504;19.084;2022-09-03T05:15:39;11.47;;;7.00;;
69046;SDS011;57261;47.504;19.084;2022-09-03T05:18:42;12.43;;;7.25;;
69046;SDS011;57261;47.504;19.084;2022-09-03T05:21:44;11.27;;;6.75;;
69046;SDS011;57261;47.504;19.084;2022-09-03T05:24:44;11.80;;;6.80;;
69046;SDS011;57261;47.504;19.084;2022-09-03T05:27:44;11.00;;;6.83;;
69046;SDS011;57261;47.504;19.084;2022-09-03T05:30:45;12.77;;;7.15;;
69046;SDS011;57261;47.504;19.084;2022-09-03T05:33:47;13.60;;;8.33;;
69046;SDS011;57261;47.504;19.084;2022-09-03T05:36:49;13.82;;;8.35;;
69046;SDS011;57261;47.504;19.084;2022-09-03T05:39:49;10.80;;;6.93;;
69046;SDS011;57261;47.504;19.084;2022-09-03T05:42:53;14.10;;;7.53;;
69046;SDS011;57261;47.504;19.084;2022-09-03T05:46:01;12.88;;;7.80;;
69046;SDS011;57261;47.504;19.084;2022-09-03T05:49:06;13.93;;;7.95;;
69046;SDS011;57261;47.504;19.084;2022-09-03T05:52:07;12.23;;;6.87;;
69046;SDS011;57261;47.504;19.084;2022-09-03T05:55:09;12.57;;;7.28;;
69046;SDS011;57261;47.504;19.084;2022-09-03T05:58:09;11.90;;;6.80;;
69046;SDS011;57261;47.504;19.084;2022-09-03T06:01:13;12.43;;;7.30;;
69046;SDS011;57261;47.504;19.084;2022-09-03T06:04:19;12.02;;;7.15;;
69046;SDS011;57261;47.504;19.084;2022-09-03T06:07:19;11.88;;;7.28;;
69046;SDS011;57261;47.504;19.084;2022-09-03T06:10:20;11.93;;;7.20;;
69046;SDS011;57261;47.504;19.084;2022-09-03T06:13:21;12.13;;;7.38;;
69046;SDS011;57261;47.504;19.084;2022-09-03T06:16:22;11.77;;;7.67;;
69046;SDS011;57261;47.504;19.084;2022-09-03T06:19:23;12.23;;;7.40;;
69046;SDS011;57261;47.504;19.084;2022-09-03T06:22:23;11.20;;;7.53;;
69046;SDS011;57261;47.504;19.084;2022-09-03T06:25:27;11.00;;;7.27;;
69046;SDS011;57261;47.504;19.084;2022-09-03T06:28:27;12.37;;;7.50;;
69046;SDS011;57261;47.504;19.084;2022-09-03T06:31:29;13.70;;;7.78;;
69046;SDS011;57261;47.504;19.084;2022-09-03T06:34:29;12.60;;;7.40;;
69046;SDS011;57261;47.504;19.084;2022-09-03T06:37:30;12.73;;;7.83;;
69046;SDS011;57261;47.504;19.084;2022-09-03T06:40:30;14.47;;;7.97;;
69046;SDS011;57261;47.504;19.084;2022-09-03T06:43:32;11.27;;;7.50;;
69046;SDS011;57261;47.504;19.084;2022-09-03T06:46:34;12.43;;;7.68;;
69046;SDS011;57261;47.504;19.084;2022-09-03T06:49:37;14.07;;;7.78;;
69046;SDS011;57261;47.504;19.084;2022-09-03T06:52:38;14.27;;;7.87;;
69046;SDS011;57261;47.504;19.084;2022-09-03T06:55:38;11.73;;;7.90;;
69046;SDS011;57261;47.504;19.084;2022-09-03T06:58:39;14.40;;;8.10;;
69046;SDS011;57261;47.504;19.084;2022-09-03T07:01:44;12.63;;;8.13;;
69046;SDS011;57261;47.504;19.084;2022-09-03T07:04:48;14.03;;;8.57;;
69046;SDS011;57261;47.504;19.084;2022-09-03T07:07:49;13.27;;;8.25;;
69046;SDS011;57261;47.504;19.084;2022-09-03T07:10:50;15.43;;;8.93;;
69046;SDS011;57261;47.504;19.084;2022-09-03T07:13:50;12.97;;;8.37;;
69046;SDS011;57261;47.504;19.084;2022-09-03T07:16:52;12.73;;;8.43;;
69046;SDS011;57261;47.504;19.084;2022-09-03T07:19:52;13.60;;;8.17;;
69046;SDS011;57261;47.504;19.084;2022-09-03T07:22:53;15.45;;;9.40;;
69046;SDS011;57261;47.504;19.084;2022-09-03T07:25:56;15.30;;;8.63;;
69046;SDS011;57261;47.504;19.084;2022-09-03T07:28:58;12.98;;;8.15;;
69046;SDS011;57261;47.504;19.084;2022-09-03T07:32:02;10.32;;;5.20;;
69046;SDS011;57261;47.504;19.084;2022-09-03T07:35:02;11.27;;;5.47;;
69046;SDS011;57261;47.504;19.084;2022-09-03T07:38:04;9.50;;;4.95;;
69046;SDS011;57261;47.504;19.084;2022-09-03T07:41:05;9.87;;;4.93;;
69046;SDS011;57261;47.504;19.084;2022-09-03T07:44:07;9.95;;;4.80;;
69046;SDS011;57261;47.504;19.084;2022-09-03T07:47:09;9.73;;;5.80;;
69046;SDS011;57261;47.504;19.084;2022-09-03T07:50:09;9.40;;;5.33;;
69046;SDS011;57261;47.504;19.084;2022-09-03T07:53:10;10.67;;;5.53;;
69046;SDS011;57261;47.504;19.084;2022-09-03T07:56:10;10.15;;;4.53;;
69046;SDS011;57261;47.504;19.084;2022-09-03T07:59:11;13.77;;;7.30;;
69046;SDS011;57261;47.504;19.084;2022-09-03T08:02:12;10.85;;;6.00;;
69046;SDS011;57261;47.504;19.084;2022-09-03T08:05:12;11.23;;;6.37;;
69046;SDS011;57261;47.504;19.084;2022-09-03T08:08:12;9.17;;;4.30;;
69046;SDS011;57261;47.504;19.084;2022-09-03T08:11:14;8.43;;;4.70;;
69046;SDS011;57261;47.504;19.084;2022-09-03T08:14:16;10.23;;;4.80;;
69046;SDS011;57261;47.504;19.084;2022-09-03T08:17:18;9.57;;;4.70;;
69046;SDS011;57261;47.504;19.084;2022-09-03T08:20:18;9.93;;;4.87;;
69046;SDS011;57261;47.504;19.084;2022-09-03T08:23:19;10.25;;;5.47;;
69046;SDS011;57261;47.504;19.084;2022-09-03T08:26:20;11.87;;;6.23;;
69046;SDS011;57261;47.504;19.084;2022-09-03T08:29:21;9.90;;;6.07;;
69046;SDS011;57261;47.504;19.084;2022-09-03T08:32:21;10.10;;;6.20;;
69046;SDS011;57261;47.504;19.084;2022-09-03T08:35:22;11.47;;;6.13;;
69046;SDS011;57261;47.504;19.084;2022-09-03T08:38:22;12.85;;;8.30;;
69046;SDS011;57261;47.504;19.084;2022-09-03T08:41:27;10.57;;;5.93;;
69046;SDS011;57261;47.504;19.084;2022-09-03T08:44:48;10.40;;;6.10;;
69046;SDS011;57261;47.504;19.084;2022-09-03T08:48:08;10.23;;;6.13;;
69046;SDS011;57261;47.504;19.084;2022-09-03T08:51:12;10.80;;;5.95;;
69046;SDS011;57261;47.504;19.084;2022-09-03T08:54:16;10.98;;;5.95;;
69046;SDS011;57261;47.504;19.084;2022-09-03T08:57:18;10.20;;;6.03;;
69046;SDS011;57261;47.504;19.084;2022-09-03T09:00:19;10.95;;;5.95;;
69046;SDS011;57261;47.504;19.084;2022-09-03T09:03:25;10.47;;;6.17;;
69046;SDS011;57261;47.504;19.084;2022-09-03T09:10:21;11.60;;;6.05;;
69046;SDS011;57261;47.504;19.084;2022-09-03T09:13:34;12.75;;;6.30;;
69046;SDS011;57261;47.504;19.084;2022-09-03T09:23:36;10.55;;;5.63;;
69046;SDS011;57261;47.504;19.084;2022-09-03T09:26:42;10.23;;;5.13;;
69046;SDS011;57261;47.504;19.084;2022-09-03T09:29:48;10.52;;;5.15;;
69046;SDS011;57261;47.504;19.084;2022-09-03T09:32:49;9.47;;;5.13;;
69046;SDS011;57261;47.504;19.084;2022-09-03T09:35:50;10.07;;;5.83;;
69046;SDS011;57261;47.504;19.084;2022-09-03T09:38:50;16.40;;;6.17;;
69046;SDS011;57261;47.504;19.084;2022-09-03T09:41:58;11.68;;;5.75;;
69046;SDS011;57261;47.504;19.084;2022-09-03T09:45:10;13.07;;;6.03;;
69046;SDS011;57261;47.504;19.084;2022-09-03T09:51:25;12.30;;;6.88;;
69046;SDS011;57261;47.504;19.084;2022-09-03T09:54:26;12.17;;;6.03;;
69046;SDS011;57261;47.504;19.084;2022-09-03T09:57:27;11.60;;;5.33;;
69046;SDS011;57261;47.504;19.084;2022-09-03T10:00:27;11.43;;;5.50;;
69046;SDS011;57261;47.504;19.084;2022-09-03T10:03:29;12.07;;;6.20;;
69046;SDS011;57261;47.504;19.084;2022-09-03T10:06:34;10.63;;;5.03;;
69046;SDS011;57261;47.504;19.084;2022-09-03T10:13:08;12.50;;;6.35;;
69046;SDS011;57261;47.504;19.084;2022-09-03T10:16:21;10.10;;;5.80;;
69046;SDS011;57261;47.504;19.084;2022-09-03T10:19:28;10.52;;;5.47;;
69046;SDS011;57261;47.504;19.084;2022-09-03T10:23:10;9.67;;;4.97;;
69046;SDS011;57261;47.504;19.084;2022-09-03T10:26:17;9.65;;;5.50;;
69046;SDS011;57261;47.504;19.084;2022-09-03T10:29:28;11.10;;;6.35;;
69046;SDS011;57261;47.504;19.084;2022-09-03T10:32:35;11.10;;;6.77;;
69046;SDS011;57261;47.504;19.084;2022-09-03T10:35:45;11.80;;;7.10;;
69046;SDS011;57261;47.504;19.084;2022-09-03T10:38:53;12.40;;;6.97;;
69046;SDS011;57261;47.504;19.084;2022-09-03T10:52:14;9.80;;;6.20;;
69046;SDS011;57261;47.504;19.084;2022-09-03T11:05:40;10.87;;;6.63;;
69046;SDS011;57261;47.504;19.084;2022-09-03T11:09:09;11.70;;;6.80;;
69046;SDS011;57261;47.504;19.084;2022-09-03T11:12:16;9.77;;;6.38;;
69046;SDS011;57261;47.504;19.084;2022-09-03T11:18:48;14.07;;;7.70;;
69046;SDS011;57261;47.504;19.084;2022-09-03T11:21:50;9.03;;;5.07;;
69046;SDS011;57261;47.504;19.084;2022-09-03T11:24:53;10.07;;;4.87;;
69046;SDS011;57261;47.504;19.084;2022-09-03T11:34:56;11.48;;;6.80;;
69046;SDS011;57261;47.504;19.084;2022-09-03T11:38:19;11.93;;;6.67;;
69046;SDS011;57261;47.504;19.084;2022-09-03T11:41:24;11.15;;;6.47;;
69046;SDS011;57261;47.504;19.084;2022-09-03T11:44:34;11.40;;;6.67;;
69046;SDS011;57261;47.504;19.084;2022-09-03T11:47:42;11.77;;;6.65;;
69046;SDS011;57261;47.504;19.084;2022-09-03T11:50:53;12.52;;;7.25;;
69046;SDS011;57261;47.504;19.084;2022-09-03T11:57:21;10.57;;;5.78;;
69046;SDS011;57261;47.504;19.084;2022-09-03T12:00:32;11.00;;;6.30;;
69046;SDS011;57261;47.504;19.084;2022-09-03T12:03:44;9.27;;;5.70;;
69046;SDS011;57261;47.504;19.084;2022-09-03T12:16:35;8.77;;;4.80;;
69046;SDS011;57261;47.504;19.084;2022-09-03T12:19:50;9.95;;;4.90;;
69046;SDS011;57261;47.504;19.084;2022-09-03T12:22:53;8.10;;;4.82;;
69046;SDS011;57261;47.504;19.084;2022-09-03T12:25:54;10.20;;;4.95;;
69046;SDS011;57261;47.504;19.084;2022-09-03T12:28:56;8.70;;;5.63;;
69046;SDS011;57261;47.504;19.084;2022-09-03T12:32:05;9.38;;;5.30;;
69046;SDS011;57261;47.504;19.084;2022-09-03T12:35:12;8.50;;;4.80;;
69046;SDS011;57261;47.504;19.084;2022-09-03T12:38:22;10.18;;;5.88;;
69046;SDS011;57261;47.504;19.084;2022-09-03T12:41:27;9.13;;;4.87;;
69046;SDS011;57261;47.504;19.084;2022-09-03T12:44:37;9.85;;;5.13;;
69046;SDS011;57261;47.504;19.084;2022-09-03T12:47:40;8.63;;;4.95;;
69046;SDS011;57261;47.504;19.084;2022-09-03T12:50:43;9.07;;;5.07;;
69046;SDS011;57261;47.504;19.084;2022-09-03T12:53:45;12.10;;;5.20;;
69046;SDS011;57261;47.504;19.084;2022-09-03T12:56:53;8.17;;;4.60;;
69046;SDS011;57261;47.504;19.084;2022-09-03T12:59:59;9.65;;;4.95;;
69046;SDS011;57261;47.504;19.084;2022-09-03T13:03:07;9.23;;;4.22;;
69046;SDS011;57261;47.504;19.084;2022-09-03T13:06:16;8.88;;;4.50;;
69046;SDS011;57261;47.504;19.084;2022-09-03T13:09:24;8.70;;;4.65;;
69046;SDS011;57261;47.504;19.084;2022-09-03T13:12:41;8.80;;;4.07;;
69046;SDS011;57261;47.504;19.084;2022-09-03T13:15:57;7.90;;;4.53;;
69046;SDS011;57261;47.504;19.084;2022-09-03T13:19:07;8.10;;;4.53;;
69046;SDS011;57261;47.504;19.084;2022-09-03T13:25:24;7.70;;;4.30;;
69046;SDS011;57261;47.504;19.084;2022-09-03T13:32:09;8.45;;;4.38;;
69046;SDS011;57261;47.504;19.084;2022-09-03T13:35:27;8.43;;;4.95;;
69046;SDS011;57261;47.504;19.084;2022-09-03T13:42:12;12.38;;;5.80;;
69046;SDS011;57261;47.504;19.084;2022-09-03T13:48:43;9.50;;;4.90;;
69046;SDS011;57261;47.504;19.084;2022-09-03T13:52:03;7.43;;;3.47;;
69046;SDS011;57261;47.504;19.084;2022-09-03T14:01:45;7.37;;;4.37;;
69046;SDS011;57261;47.504;19.084;2022-09-03T14:10:59;8.27;;;4.33;;
69046;SDS011;57261;47.504;19.084;2022-09-03T14:25:16;7.20;;;4.40;;
69046;SDS011;57261;47.504;19.084;2022-09-03T14:27:47;7.82;;;4.15;;
69046;SDS011;57261;47.504;19.084;2022-09-03T14:41:44;7.05;;;3.40;;
69046;SDS011;57261;47.504;19.084;2022-09-03T14:48:23;6.70;;;3.60;;
69046;SDS011;57261;47.504;19.084;2022-09-03T14:58:11;7.72;;;4.05;;
69046;SDS011;57261;47.504;19.084;2022-09-03T15:01:32;8.23;;;4.40;;
69046;SDS011;57261;47.504;19.084;2022-09-03T15:04:44;8.93;;;3.77;;
69046;SDS011;57261;47.504;19.084;2022-09-03T15:12:02;7.88;;;4.10;;
69046;SDS011;57261;47.504;19.084;2022-09-03T15:15:07;10.48;;;4.18;;
69046;SDS011;57261;47.504;19.084;2022-09-03T15:21:23;7.53;;;4.00;;
69046;SDS011;57261;47.504;19.084;2022-09-03T15:24:50;7.77;;;4.00;;
69046;SDS011;57261;47.504;19.084;2022-09-03T15:28:00;7.10;;;3.38;;
69046;SDS011;57261;47.504;19.084;2022-09-03T15:34:45;7.82;;;3.90;;
69046;SDS011;57261;47.504;19.084;2022-09-03T15:37:56;12.13;;;4.00;;
69046;SDS011;57261;47.504;19.084;2022-09-03T15:41:02;8.67;;;4.53;;
69046;SDS011;57261;47.504;19.084;2022-09-03T15:44:14;7.50;;;4.20;;
69046;SDS011;57261;47.504;19.084;2022-09-03T15:50:53;8.82;;;4.40;;
69046;SDS011;57261;47.504;19.084;2022-09-03T15:53:58;8.33;;;4.60;;
69046;SDS011;57261;47.504;19.084;2022-09-03T16:00:30;9.27;;;4.40;;
69046;SDS011;57261;47.504;19.084;2022-09-03T16:03:40;8.20;;;4.32;;
69046;SDS011;57261;47.504;19.084;2022-09-03T16:13:28;7.43;;;4.43;;
69046;SDS011;57261;47.504;19.084;2022-09-03T16:19:53;9.13;;;5.00;;
69046;SDS011;57261;47.504;19.084;2022-09-03T16:26:28;9.13;;;4.93;;
69046;SDS011;57261;47.504;19.084;2022-09-03T16:29:35;10.67;;;6.00;;
69046;SDS011;57261;47.504;19.084;2022-09-03T16:53:07;14.00;;;7.65;;
69046;SDS011;57261;47.504;19.084;2022-09-03T17:03:04;14.07;;;6.80;;
69046;SDS011;57261;47.504;19.084;2022-09-03T17:06:29;15.07;;;7.50;;
69046;SDS011;57261;47.504;19.084;2022-09-03T17:13:03;16.03;;;6.60;;
69046;SDS011;57261;47.504;19.084;2022-09-03T17:16:11;16.75;;;7.20;;
69046;SDS011;57261;47.504;19.084;2022-09-03T17:22:58;14.55;;;6.70;;
69046;SDS011;57261;47.504;19.084;2022-09-03T17:26:10;16.05;;;7.20;;
69046;SDS011;57261;47.504;19.084;2022-09-03T17:35:58;15.98;;;8.07;;
69046;SDS011;57261;47.504;19.084;2022-09-03T17:42:45;19.23;;;8.95;;
69046;SDS011;57261;47.504;19.084;2022-09-03T17:45:57;18.07;;;9.20;;
69046;SDS011;57261;47.504;19.084;2022-09-03T17:49:05;18.05;;;8.65;;
69046;SDS011;57261;47.504;19.084;2022-09-03T17:56:00;17.13;;;9.00;;
69046;SDS011;57261;47.504;19.084;2022-09-03T17:59:08;16.63;;;8.93;;
69046;SDS011;57261;47.504;19.084;2022-09-03T18:05:42;15.35;;;8.45;;
69046;SDS011;57261;47.504;19.084;2022-09-03T18:08:57;16.15;;;8.45;;
69046;SDS011;57261;47.504;19.084;2022-09-03T18:12:08;20.90;;;8.80;;
69046;SDS011;57261;47.504;19.084;2022-09-03T18:15:25;16.48;;;8.55;;
69046;SDS011;57261;47.504;19.084;2022-09-03T18:18:31;16.43;;;8.77;;
69046;SDS011;57261;47.504;19.084;2022-09-03T18:21:34;17.35;;;9.70;;
69046;SDS011;57261;47.504;19.084;2022-09-03T18:24:57;15.40;;;8.65;;
69046;SDS011;57261;47.504;19.084;2022-09-03T18:28:18;17.00;;;8.68;;
69046;SDS011;57261;47.504;19.084;2022-09-03T18:32:04;16.10;;;9.70;;
69046;SDS011;57261;47.504;19.084;2022-09-03T18:35:24;17.07;;;9.47;;
69046;SDS011;57261;47.504;19.084;2022-09-03T18:38:46;16.70;;;9.57;;
69046;SDS011;57261;47.504;19.084;2022-09-03T18:45:42;20.85;;;11.63;;
69046;SDS011;57261;47.504;19.084;2022-09-03T18:49:23;24.10;;;14.02;;
69046;SDS011;57261;47.504;19.084;2022-09-03T18:52:54;23.40;;;13.30;;
69046;SDS011;57261;47.504;19.084;2022-09-03T18:56:21;37.10;;;18.58;;
69046;SDS011;57261;47.504;19.084;2022-09-03T19:03:38;31.92;;;15.82;;
69046;SDS011;57261;47.504;19.084;2022-09-03T19:07:10;32.25;;;16.98;;
69046;SDS011;57261;47.504;19.084;2022-09-03T19:10:50;30.20;;;15.23;;
69046;SDS011;57261;47.504;19.084;2022-09-03T19:21:27;44.97;;;21.23;;
69046;SDS011;57261;47.504;19.084;2022-09-03T19:24:54;44.85;;;21.83;;
69046;SDS011;57261;47.504;19.084;2022-09-03T19:28:21;43.90;;;21.57;;
69046;SDS011;57261;47.504;19.084;2022-09-03T19:31:51;38.40;;;18.98;;
69046;SDS011;57261;47.504;19.084;2022-09-03T19:35:19;33.72;;;16.55;;
69046;SDS011;57261;47.504;19.084;2022-09-03T19:46:36;21.40;;;10.37;;
69046;SDS011;57261;47.504;19.084;2022-09-03T19:50:13;22.38;;;11.35;;
69046;SDS011;57261;47.504;19.084;2022-09-03T19:53:39;17.05;;;8.93;;
69046;SDS011;57261;47.504;19.084;2022-09-03T19:56:59;16.40;;;9.65;;
69046;SDS011;57261;47.504;19.084;2022-09-03T20:00:18;21.90;;;11.27;;
69046;SDS011;57261;47.504;19.084;2022-09-03T20:03:37;23.70;;;11.80;;
69046;SDS011;57261;47.504;19.084;2022-09-03T20:06:57;22.85;;;11.05;;
69046;SDS011;57261;47.504;19.084;2022-09-03T20:10:19;18.77;;;9.15;;
69046;SDS011;57261;47.504;19.084;2022-09-03T20:13:22;17.55;;;8.45;;
69046;SDS011;57261;47.504;19.084;2022-09-03T20:16:26;19.13;;;8.97;;
69046;SDS011;57261;47.504;19.084;2022-09-03T20:23:10;18.33;;;8.87;;
69046;SDS011;57261;47.504;19.084;2022-09-03T20:26:22;17.43;;;8.63;;
